aviador You're here:

VNKT Decoded Metar

KATHMANDU in NEPAL
Report Time2017-01-20 11:50:00
UTC Time2017-01-20 12:00:08
Flight Rules vfr VFR
Wind260° at 04 kt
W.Decomp.*RWY 20: 2.0 kt HW 3.5 kt RCW
W.Rank260° ranks 9
Current wind is below 260° avg. (5.7)
Visibility8000 m
Phenomena:N/A
Clouds:Few 020 Hf
Expected CloudBase > 6,000 ft AGL from Temp-Dew spread
CeilingNone
Temp16°C (ISA +10)
Dew Point01°C (36% RH)
AAT12.7°C
QNH1019 hPa
Density Alt5,413 ft
Elevation4,386 ft
Report Wrong Elevation
Raw Report
VNKT 201150Z 26004KT 8000 FEW020 16/01 Q1019 NOSIG=

Extra information for VNKT:More info

Metar Taf Metar & Taf Last 4 Metars F.Rules Stats Wind Profile Meteogram Temp Stats Airport Information Weather charts Add Link Nearby VenuesMetar ALERT Operation Metar Decoded Social comments